Pagrindinis puslapis
METAR-TAF:

METAR-TAF

Oro uostai :

Oruras, Bolivija

platuma: 17-58S, ilguma: 067-04W, Aukštis: 3072 m

Dabartinis oras

Ataskaita buvo paskelbta 10 valandos ir 18 minutes, ne 18:00 UTC
Ramus vėjas
Temperatūra 14°C
Drėgmė 5%
Slėgis 1035 hPa
Matomumas 10 km arba daugiau

METAR: SLOR 101800Z 00000KT 9999 NSC 14/M24 Q1035

Laikas: 00:18 (04:18 UTC)


TAF: trūkstamas

Orai ataskaitas ir orų prognozės (METAR, TAF).

turimą stotys yra geltonos ir raudonos taškus žemėlapyje.

Perkelti pele per norėdami pamatyti stoties vardą.

Tada spustelėkite, norėdami matyti oro stebėjimo ir prognozės.

Norėdami pakeisti žemėlapį: spustelėkite ant žalios mygtukų su juodo kryžiaus žemyn,; žalią mygtuką su brūkšneliu, jei norite nutolinti; arba žalių rodyklių gretimoms žemėlapius.


METAR-TAF: